createdAt,value
2022-09-28T00:01:59.773Z,2.90
2022-09-28T00:04:26.787Z,2.55
2022-09-28T00:06:53.374Z,2.47
2022-09-28T00:09:20.229Z,2.80
2022-09-28T00:11:47.410Z,3.00
2022-09-28T00:14:15.378Z,3.05
2022-09-28T00:16:44.151Z,2.67
2022-09-28T00:19:12.574Z,2.55
2022-09-28T00:21:41.065Z,2.80
2022-09-28T00:24:12.501Z,2.60
2022-09-28T00:26:43.795Z,2.58
2022-09-28T00:29:17.569Z,2.40
2022-09-28T00:31:44.727Z,2.45
2022-09-28T00:34:12.285Z,2.50
2022-09-28T00:36:38.961Z,3.13
2022-09-28T00:39:08.531Z,3.00
2022-09-28T00:41:35.933Z,2.85
2022-09-28T00:44:39.913Z,3.35
2022-09-28T00:47:13.571Z,3.10
2022-09-28T00:50:21.282Z,3.83
2022-09-28T00:53:01.191Z,3.33
2022-09-28T00:55:38.898Z,3.33
2022-09-28T00:58:10.143Z,3.80
2022-09-28T01:00:36.923Z,3.42
2022-09-28T01:03:04.221Z,3.55
2022-09-28T01:05:30.899Z,3.58
2022-09-28T01:07:58.145Z,3.65
2022-09-28T01:10:25.358Z,3.47
2022-09-28T01:12:51.936Z,4.05
2022-09-28T01:15:21.740Z,4.10
2022-09-28T01:18:12.516Z,3.80
2022-09-28T01:20:55.786Z,4.13
2022-09-28T01:23:32.899Z,3.85
2022-09-28T01:26:36.315Z,3.72
2022-09-28T01:29:13.483Z,4.03
2022-09-28T01:31:45.015Z,4.30
2022-09-28T01:34:17.470Z,4.18
2022-09-28T01:36:49.177Z,4.30
2022-09-28T01:39:21.145Z,3.80
2022-09-28T01:41:51.472Z,4.40
2022-09-28T01:44:21.082Z,3.80
2022-09-28T01:46:50.189Z,4.05
2022-09-28T01:49:27.672Z,4.53
2022-09-28T01:52:03.505Z,4.30
2022-09-28T01:54:42.846Z,4.47
2022-09-28T01:57:34.774Z,4.50
2022-09-28T02:00:13.333Z,4.65
2022-09-28T02:03:08.979Z,4.30
2022-09-28T02:05:53.031Z,4.88
2022-09-28T02:08:33.508Z,4.65
2022-09-28T02:11:17.389Z,4.43
2022-09-28T02:14:06.276Z,4.50
2022-09-28T02:16:41.229Z,4.50
2022-09-28T02:19:13.024Z,4.82
2022-09-28T02:22:12.444Z,4.65
2022-09-28T02:24:46.572Z,4.93
2022-09-28T02:29:41.591Z,4.97
2022-09-28T02:32:08.317Z,4.57
2022-09-28T02:34:35.613Z,5.45
2022-09-28T02:37:02.836Z,4.68
2022-09-28T02:39:29.487Z,5.30
2022-09-28T02:42:09.337Z,4.72
2022-09-28T02:44:45.474Z,4.68
2022-09-28T02:47:35.715Z,5.25
2022-09-28T02:50:23.158Z,4.57
2022-09-28T02:53:27.421Z,5.20
2022-09-28T02:56:07.570Z,4.90
2022-09-28T02:58:58.822Z,5.38
2022-09-28T03:01:32.103Z,5.32
2022-09-28T03:04:07.166Z,5.50
2022-09-28T03:06:40.120Z,5.60
2022-09-28T03:09:25.702Z,5.85
2022-09-28T03:11:57.207Z,5.15
2022-09-28T03:14:24.196Z,4.82
2022-09-28T03:16:51.083Z,5.18
2022-09-28T03:19:23.314Z,5.15
2022-09-28T03:21:49.917Z,5.15
2022-09-28T03:24:16.470Z,5.22
2022-09-28T03:26:43.082Z,5.32
2022-09-28T03:29:09.834Z,5.50
2022-09-28T03:31:36.567Z,4.70
2022-09-28T03:34:03.296Z,4.75
2022-09-28T03:36:29.879Z,5.25
2022-09-28T03:38:56.618Z,4.57
2022-09-28T03:41:29.626Z,4.85
2022-09-28T03:43:56.265Z,5.80
2022-09-28T03:46:22.853Z,5.05
2022-09-28T03:48:49.411Z,4.72
2022-09-28T03:51:16.127Z,5.07
2022-09-28T03:53:42.704Z,5.38
2022-09-28T03:56:13.693Z,5.25
2022-09-28T03:58:40.636Z,5.45
2022-09-28T04:01:16.532Z,5.03
2022-09-28T04:03:44.453Z,4.95
2022-09-28T04:06:11.691Z,4.90
2022-09-28T04:08:38.909Z,5.60
2022-09-28T04:11:06.071Z,5.18
2022-09-28T04:13:32.725Z,5.32
2022-09-28T04:16:01.280Z,5.22
2022-09-28T04:18:28.583Z,5.20
2022-09-28T04:21:03.699Z,4.72
2022-09-28T04:23:30.810Z,5.22
2022-09-28T04:25:57.625Z,4.65
2022-09-28T04:28:43.551Z,4.47
2022-09-28T04:31:17.106Z,5.32
2022-09-28T04:33:44.083Z,5.60
2022-09-28T04:36:11.113Z,5.38
2022-09-28T04:38:52.211Z,4.95
2022-09-28T04:41:19.857Z,5.10
2022-09-28T04:43:50.145Z,4.18
2022-09-28T04:46:17.479Z,4.38
2022-09-28T04:48:44.264Z,4.63
2022-09-28T04:51:11.352Z,4.65
2022-09-28T04:53:38.030Z,5.20
2022-09-28T04:56:10.939Z,10.07
2022-09-28T04:58:38.099Z,5.35
2022-09-28T05:01:11.736Z,5.07
2022-09-28T05:03:38.523Z,5.00
2022-09-28T05:06:06.881Z,4.90
2022-09-28T05:08:35.244Z,4.75
2022-09-28T05:11:04.460Z,6.05
2022-09-28T05:13:32.323Z,6.15
2022-09-28T05:16:03.150Z,5.80
2022-09-28T05:18:31.924Z,6.22
2022-09-28T05:20:58.599Z,5.43
2022-09-28T05:23:25.244Z,4.90
2022-09-28T05:25:51.843Z,5.63
2022-09-28T05:28:26.326Z,5.50
2022-09-28T05:30:53.191Z,5.28
2022-09-28T05:33:19.865Z,5.65
2022-09-28T05:35:51.029Z,6.43
2022-09-28T05:38:20.153Z,5.50
2022-09-28T05:40:47.058Z,5.22
2022-09-28T05:43:13.712Z,6.45
2022-09-28T05:45:40.363Z,6.22
2022-09-28T05:48:06.989Z,6.72
2022-09-28T05:50:34.078Z,6.35
2022-09-28T05:53:02.817Z,6.03
2022-09-28T05:55:29.826Z,6.20
2022-09-28T05:58:00.395Z,6.70
2022-09-28T06:00:28.388Z,5.60
2022-09-28T06:02:59.932Z,6.05
2022-09-28T06:05:28.021Z,5.40
2022-09-28T06:07:58.896Z,5.68
2022-09-28T06:10:27.004Z,5.13
2022-09-28T06:12:57.941Z,5.68
2022-09-28T06:15:26.945Z,5.18
2022-09-28T06:18:01.879Z,5.35
2022-09-28T06:20:31.610Z,4.47
2022-09-28T06:22:58.397Z,5.30
2022-09-28T06:25:25.810Z,5.30
2022-09-28T06:28:00.839Z,4.95
2022-09-28T06:30:29.324Z,4.85
2022-09-28T06:32:58.005Z,5.43
2022-09-28T06:35:26.703Z,5.32
2022-09-28T06:37:53.947Z,5.70
2022-09-28T06:40:21.364Z,5.90
2022-09-28T06:42:59.398Z,5.47
2022-09-28T06:45:27.286Z,6.60
2022-09-28T06:47:59.278Z,6.35
2022-09-28T06:50:28.278Z,5.68
2022-09-28T06:52:55.690Z,5.60
2022-09-28T06:55:22.865Z,5.55
2022-09-28T06:57:59.076Z,5.80
2022-09-28T07:00:27.663Z,5.53
2022-09-28T07:02:54.306Z,6.22
2022-09-28T07:05:26.612Z,6.22
2022-09-28T07:07:55.274Z,5.65
2022-09-28T07:10:27.822Z,6.28
2022-09-28T07:12:55.562Z,5.68
2022-09-28T07:15:34.457Z,6.45
2022-09-28T07:18:03.983Z,6.22
2022-09-28T07:20:46.124Z,5.80
2022-09-28T07:23:19.781Z,6.07
2022-09-28T07:25:47.849Z,5.20
2022-09-28T07:28:15.455Z,5.90
2022-09-28T07:30:43.475Z,5.38
2022-09-28T07:33:14.376Z,5.85
2022-09-28T07:35:58.020Z,13.65
2022-09-28T07:38:25.986Z,4.93
2022-09-28T07:41:11.324Z,4.82
2022-09-28T07:43:39.696Z,5.13
2022-09-28T07:46:12.674Z,4.88
2022-09-28T07:48:43.132Z,5.07
2022-09-28T07:51:20.142Z,5.35
2022-09-28T07:53:48.023Z,4.88
2022-09-28T07:56:17.289Z,5.13
2022-09-28T07:58:43.982Z,4.85
2022-09-28T08:01:14.983Z,4.63
2022-09-28T08:03:45.039Z,4.45
2022-09-28T08:06:13.944Z,3.83
2022-09-28T08:08:44.529Z,4.55
2022-09-28T08:11:13.010Z,4.88
2022-09-28T08:13:39.916Z,4.13
2022-09-28T08:16:08.387Z,5.18
2022-09-28T08:18:36.145Z,4.82
2022-09-28T08:21:22.489Z,4.85
2022-09-28T08:23:49.520Z,4.68
2022-09-28T08:26:16.495Z,5.10
2022-09-28T08:28:45.012Z,4.47
2022-09-28T08:31:12.027Z,4.53
2022-09-28T08:33:38.685Z,4.28
2022-09-28T08:36:06.063Z,4.40
2022-09-28T08:38:32.957Z,4.60
2022-09-28T08:41:18.681Z,4.00
2022-09-28T08:44:02.455Z,4.13
2022-09-28T08:46:46.796Z,4.53
2022-09-28T08:49:41.048Z,5.10
2022-09-28T08:52:17.144Z,4.03
2022-09-28T08:55:02.355Z,3.83
2022-09-28T08:57:56.153Z,3.85
2022-09-28T09:00:36.421Z,4.13
2022-09-28T09:03:10.557Z,4.20
2022-09-28T09:08:46.801Z,4.20
2022-09-28T09:11:35.689Z,3.90
2022-09-28T09:14:37.435Z,3.85
2022-09-28T09:17:24.280Z,3.63
2022-09-28T09:19:58.612Z,3.75
2022-09-28T09:22:37.675Z,3.65
2022-09-28T09:25:28.448Z,4.32
2022-09-28T09:28:08.561Z,4.00
2022-09-28T09:30:46.168Z,4.32
2022-09-28T09:33:45.515Z,4.38
2022-09-28T09:36:29.613Z,3.67
2022-09-28T09:39:15.203Z,3.40
2022-09-28T09:42:05.919Z,4.60
2022-09-28T09:44:44.959Z,3.47
2022-09-28T09:47:17.329Z,3.47
2022-09-28T09:49:49.669Z,3.47
2022-09-28T09:52:25.686Z,3.75
2022-09-28T09:55:03.575Z,3.70
2022-09-28T09:57:39.753Z,3.05
2022-09-28T10:00:13.514Z,3.38
2022-09-28T10:02:52.067Z,2.95
2022-09-28T10:05:41.298Z,2.85
2022-09-28T10:08:08.161Z,3.08
2022-09-28T10:11:10.360Z,1.90
2022-09-28T10:13:58.409Z,2.40
2022-09-28T10:16:25.389Z,1.90
2022-09-28T10:18:52.201Z,1.25
2022-09-28T10:21:24.147Z,1.50
2022-09-28T10:30:42.790Z,1.48
2022-09-28T10:33:32.504Z,1.42
2022-09-28T10:36:01.187Z,1.13
2022-09-28T10:38:30.189Z,1.23
2022-09-28T10:41:10.324Z,1.27
2022-09-28T10:44:05.957Z,1.58
2022-09-28T10:46:38.205Z,1.20
2022-09-28T10:49:16.911Z,1.17
2022-09-28T10:51:54.849Z,1.20
2022-09-28T10:54:29.763Z,1.13
2022-09-28T10:56:58.252Z,1.10
2022-09-28T10:59:30.801Z,0.93
2022-09-28T11:02:02.381Z,0.75
2022-09-28T11:04:32.887Z,0.73
2022-09-28T11:07:01.871Z,0.98
2022-09-28T11:09:43.443Z,1.50
2022-09-28T11:12:20.500Z,1.27
2022-09-28T11:14:52.780Z,0.90
2022-09-28T11:17:25.608Z,1.17
2022-09-28T11:19:53.749Z,0.98
2022-09-28T11:22:38.120Z,1.13
2022-09-28T11:25:16.984Z,1.13
2022-09-28T11:28:04.503Z,0.85
2022-09-28T11:30:49.823Z,0.82
2022-09-28T11:33:25.722Z,0.70
2022-09-28T11:35:55.391Z,0.75
2022-09-28T11:38:48.271Z,0.85
2022-09-28T11:41:48.115Z,0.93
2022-09-28T11:44:37.239Z,0.80
2022-09-28T11:47:22.339Z,0.95
2022-09-28T11:50:03.130Z,0.98
2022-09-28T11:52:49.289Z,0.90
2022-09-28T11:55:34.672Z,1.00
2022-09-28T11:58:23.719Z,0.90
2022-09-28T12:00:56.174Z,0.80
2022-09-28T12:03:34.306Z,1.40
2022-09-28T12:06:05.250Z,1.00
2022-09-28T12:08:40.221Z,1.20
2022-09-28T12:11:22.045Z,1.40
2022-09-28T12:13:52.184Z,1.90
2022-09-28T12:17:04.968Z,1.30
2022-09-28T12:19:46.645Z,1.58
2022-09-28T12:22:23.356Z,0.90
2022-09-28T12:24:54.343Z,0.90
2022-09-28T12:27:46.629Z,1.10
2022-09-28T12:30:13.729Z,0.80
2022-09-28T12:32:55.708Z,1.05
2022-09-28T12:35:47.012Z,0.90
2022-09-28T12:38:22.613Z,1.30
2022-09-28T12:40:59.244Z,1.00
2022-09-28T12:43:43.544Z,1.40
2022-09-28T12:46:20.784Z,1.20
2022-09-28T12:49:36.749Z,1.25
2022-09-28T12:51:55.633Z,1.08
2022-09-28T12:54:45.927Z,0.73
2022-09-28T12:57:38.100Z,0.95
2022-09-28T13:00:06.595Z,1.10
2022-09-28T13:02:54.695Z,1.45
2022-09-28T13:05:34.409Z,1.25
2022-09-28T13:08:25.747Z,1.30
2022-09-28T13:11:16.591Z,1.20
2022-09-28T13:14:03.038Z,1.20
2022-09-28T13:16:57.233Z,1.20
2022-09-28T13:19:49.249Z,1.35
2022-09-28T13:22:27.506Z,1.30
2022-09-28T13:24:57.519Z,1.30
2022-09-28T13:27:35.356Z,1.35
2022-09-28T13:30:06.723Z,1.60
2022-09-28T13:32:35.843Z,1.77
2022-09-28T13:35:02.630Z,1.73
2022-09-28T13:37:30.322Z,1.60
2022-09-28T13:40:05.769Z,1.65
2022-09-28T13:42:44.489Z,1.13
2022-09-28T13:45:48.876Z,1.60
2022-09-28T13:48:46.092Z,1.50
2022-09-28T13:51:25.592Z,1.60
2022-09-28T13:54:01.442Z,1.60
2022-09-28T13:56:44.694Z,1.40
2022-09-28T13:59:18.413Z,1.73
2022-09-28T14:02:00.738Z,1.80
2022-09-28T14:05:00.272Z,1.77
2022-09-28T14:07:36.089Z,1.63
2022-09-28T14:10:44.585Z,1.70
2022-09-28T14:13:12.152Z,2.00
2022-09-28T14:15:41.985Z,1.30
2022-09-28T14:18:28.271Z,1.38
2022-09-28T14:21:13.369Z,1.88
2022-09-28T14:24:08.673Z,1.50
2022-09-28T14:27:00.187Z,1.63
2022-09-28T14:29:29.735Z,1.58
2022-09-28T14:31:58.349Z,1.52
2022-09-28T14:34:46.636Z,1.42
2022-09-28T14:37:49.976Z,1.55
2022-09-28T14:40:43.703Z,1.27
2022-09-28T14:43:34.774Z,0.98
2022-09-28T14:46:23.419Z,1.10
2022-09-28T14:49:20.333Z,1.10
2022-09-28T14:51:53.114Z,1.10
2022-09-28T14:54:21.937Z,1.30
2022-09-28T14:56:54.374Z,1.02
2022-09-28T14:59:36.042Z,1.00
2022-09-28T15:02:08.581Z,1.02
2022-09-28T15:04:40.877Z,1.10
2022-09-28T15:07:19.920Z,1.13
2022-09-28T15:09:50.054Z,1.10
2022-09-28T15:12:20.168Z,1.42
2022-09-28T15:14:53.459Z,1.48
2022-09-28T15:17:23.358Z,1.20
2022-09-28T15:20:17.204Z,2.17
2022-09-28T15:22:57.813Z,1.47
2022-09-28T15:25:30.453Z,0.90
2022-09-28T15:28:03.489Z,1.33
2022-09-28T15:30:34.808Z,1.55
2022-09-28T15:33:21.990Z,1.95
2022-09-28T15:36:01.736Z,1.67
2022-09-28T15:38:31.093Z,1.92
2022-09-28T15:40:58.110Z,2.03
2022-09-28T15:43:28.997Z,3.83
2022-09-28T15:46:10.560Z,3.97
2022-09-28T15:48:52.098Z,2.75
2022-09-28T15:51:21.335Z,2.20
2022-09-28T15:53:47.986Z,1.50
2022-09-28T15:56:14.732Z,1.20
2022-09-28T15:58:41.805Z,3.42
2022-09-28T16:01:35.827Z,1.60
2022-09-28T16:04:50.229Z,1.20
2022-09-28T16:07:16.863Z,1.30
2022-09-28T16:10:12.519Z,1.50
2022-09-28T16:12:56.575Z,1.58
2022-09-28T16:15:28.354Z,0.90
2022-09-28T16:18:02.611Z,1.02
2022-09-28T16:23:06.059Z,1.50
2022-09-28T16:25:37.088Z,1.40
2022-09-28T16:28:05.069Z,1.67
2022-09-28T16:30:34.550Z,3.60
2022-09-28T16:33:05.163Z,2.38
2022-09-28T16:35:35.924Z,1.85
2022-09-28T16:38:22.797Z,2.80
2022-09-28T16:40:53.776Z,2.20
2022-09-28T16:43:26.872Z,2.50
2022-09-28T16:46:05.166Z,2.78
2022-09-28T16:48:34.355Z,1.88
2022-09-28T16:51:00.938Z,2.00
2022-09-28T16:53:46.310Z,1.88
2022-09-28T16:56:13.381Z,1.65
2022-09-28T16:58:40.114Z,2.13
2022-09-28T17:01:10.160Z,2.10
2022-09-28T17:03:37.021Z,2.30
2022-09-28T17:06:06.208Z,2.50
2022-09-28T17:08:33.700Z,2.22
2022-09-28T17:11:24.215Z,1.55
2022-09-28T17:13:51.865Z,1.63
2022-09-28T17:16:37.081Z,1.50
2022-09-28T17:19:19.545Z,2.05
2022-09-28T17:21:46.819Z,1.67
2022-09-28T17:24:13.673Z,1.90
2022-09-28T17:26:43.759Z,2.47
2022-09-28T17:29:14.554Z,1.77
2022-09-28T17:31:42.736Z,1.70
2022-09-28T17:34:11.381Z,1.70
2022-09-28T17:36:38.290Z,1.48
2022-09-28T17:39:06.697Z,1.55
2022-09-28T17:41:34.241Z,2.50
2022-09-28T17:44:01.805Z,2.10
2022-09-28T17:46:34.793Z,2.28
2022-09-28T17:49:04.229Z,2.40
2022-09-28T17:51:34.639Z,1.90
2022-09-28T17:54:01.783Z,2.10
2022-09-28T17:56:32.202Z,1.80
2022-09-28T17:59:01.362Z,1.95
2022-09-28T18:01:33.828Z,1.98
2022-09-28T18:04:05.876Z,2.08
2022-09-28T18:06:36.976Z,2.10
2022-09-28T18:09:04.637Z,2.20
2022-09-28T18:11:33.046Z,3.10
2022-09-28T18:13:59.933Z,2.80
2022-09-28T18:16:28.565Z,2.95
2022-09-28T18:18:55.384Z,3.35
2022-09-28T18:21:24.800Z,3.20
2022-09-28T18:23:51.469Z,3.15
2022-09-28T18:26:21.482Z,3.25
2022-09-28T18:28:48.278Z,4.00
2022-09-28T18:31:16.051Z,4.63
2022-09-28T18:33:43.478Z,5.65
2022-09-28T18:36:10.146Z,3.38
2022-09-28T18:38:37.831Z,4.07
2022-09-28T18:41:11.947Z,4.30
2022-09-28T18:46:09.684Z,3.83
2022-09-28T18:48:37.523Z,3.00
2022-09-28T18:51:09.158Z,4.32
2022-09-28T18:53:36.662Z,3.80
2022-09-28T18:56:11.985Z,3.65
2022-09-28T18:58:41.351Z,3.17
2022-09-28T19:01:28.911Z,4.30
2022-09-28T19:03:56.400Z,3.20
2022-09-28T19:06:23.078Z,4.28
2022-09-28T19:08:58.243Z,3.85
2022-09-28T19:11:25.934Z,2.78
2022-09-28T19:13:54.493Z,2.90
2022-09-28T19:16:24.054Z,4.00
2022-09-28T19:18:52.380Z,4.63
2022-09-28T19:21:19.680Z,6.22
2022-09-28T19:23:49.814Z,5.53
2022-09-28T19:26:23.038Z,4.93
2022-09-28T19:28:50.330Z,3.78
2022-09-28T19:31:17.338Z,5.90
2022-09-28T19:33:46.469Z,6.10
2022-09-28T19:36:17.166Z,5.30
2022-09-28T19:38:44.703Z,4.00
2022-09-28T19:41:13.746Z,4.20
2022-09-28T19:43:44.062Z,3.92
2022-09-28T19:46:12.715Z,3.83
2022-09-28T19:48:43.327Z,3.55
2022-09-28T19:51:10.474Z,3.60
2022-09-28T19:53:37.315Z,3.30
2022-09-28T19:56:05.532Z,3.33
2022-09-28T19:58:35.670Z,3.50
2022-09-28T20:01:06.554Z,3.35
2022-09-28T20:03:34.690Z,3.45
2022-09-28T20:06:02.617Z,3.33
2022-09-28T20:08:32.364Z,3.70
2022-09-28T20:11:00.009Z,3.47
2022-09-28T20:13:35.380Z,3.70
2022-09-28T20:16:10.770Z,4.03
2022-09-28T20:18:39.283Z,4.15
2022-09-28T20:21:17.129Z,4.07
2022-09-28T20:23:45.853Z,4.03
2022-09-28T20:26:13.401Z,4.45
2022-09-28T20:28:40.730Z,4.20
2022-09-28T20:31:14.645Z,4.28
2022-09-28T20:33:44.587Z,6.47
2022-09-28T20:36:13.962Z,6.82
2022-09-28T20:38:41.005Z,7.78
2022-09-28T20:41:08.716Z,7.80
2022-09-28T20:43:35.592Z,8.65
2022-09-28T20:46:03.933Z,12.68
2022-09-28T20:48:31.329Z,16.90
2022-09-28T20:50:59.954Z,20.33
2022-09-28T20:53:26.690Z,18.67
2022-09-28T20:56:03.891Z,18.48
2022-09-28T20:58:30.989Z,21.60
2022-09-28T21:01:18.434Z,20.35
2022-09-28T21:03:48.089Z,18.05
2022-09-28T21:06:16.981Z,17.13
2022-09-28T21:08:44.794Z,12.95
2022-09-28T21:11:12.553Z,11.63
2022-09-28T21:13:41.534Z,7.97
2022-09-28T21:16:12.068Z,6.55
2022-09-28T21:18:42.130Z,6.50
2022-09-28T21:21:12.549Z,7.72
2022-09-28T21:23:39.541Z,8.00
2022-09-28T21:26:13.284Z,8.27
2022-09-28T21:28:40.642Z,12.30
2022-09-28T21:31:10.223Z,9.93
2022-09-28T21:33:37.158Z,9.52
2022-09-28T21:36:06.298Z,9.52
2022-09-28T21:38:33.969Z,10.18
2022-09-28T21:41:00.791Z,10.43
2022-09-28T21:43:29.346Z,12.13
2022-09-28T21:45:56.289Z,11.20
2022-09-28T21:48:26.458Z,12.10
2022-09-28T21:51:00.285Z,10.75
2022-09-28T21:53:29.552Z,12.23
2022-09-28T21:55:57.210Z,11.73
2022-09-28T21:58:25.813Z,10.98
2022-09-28T22:01:18.104Z,10.85
2022-09-28T22:03:47.788Z,9.43
2022-09-28T22:06:16.152Z,6.97
2022-09-28T22:08:42.858Z,5.82
2022-09-28T22:11:12.783Z,7.90
2022-09-28T22:13:41.797Z,8.00
2022-09-28T22:16:09.699Z,7.18
2022-09-28T22:18:36.647Z,7.32
2022-09-28T22:21:11.646Z,5.95
2022-09-28T22:23:39.736Z,6.47
2022-09-28T22:26:09.818Z,7.03
2022-09-28T22:28:37.282Z,6.93
2022-09-28T22:31:04.755Z,6.72
2022-09-28T22:33:31.485Z,8.43
2022-09-28T22:35:58.124Z,8.93
2022-09-28T22:38:24.896Z,8.05
2022-09-28T22:40:56.128Z,7.32
2022-09-28T22:43:23.717Z,7.10
2022-09-28T22:45:59.844Z,8.00
2022-09-28T22:48:26.577Z,7.32
2022-09-28T22:50:53.140Z,6.47
2022-09-28T22:53:19.724Z,5.80
2022-09-28T22:55:46.566Z,5.60
2022-09-28T22:58:13.668Z,5.43
2022-09-28T23:00:40.307Z,4.50
2022-09-28T23:03:07.049Z,3.92
2022-09-28T23:05:33.750Z,3.70
2022-09-28T23:08:00.518Z,3.58
2022-09-28T23:10:27.434Z,4.28
2022-09-28T23:12:54.945Z,3.70
2022-09-28T23:15:22.313Z,3.55
2022-09-28T23:17:55.574Z,3.50
2022-09-28T23:20:23.432Z,3.63
2022-09-28T23:22:50.426Z,3.20
2022-09-28T23:25:18.523Z,3.92
2022-09-28T23:27:48.506Z,3.85
2022-09-28T23:30:16.801Z,3.83
2022-09-28T23:32:43.820Z,3.97
2022-09-28T23:35:11.399Z,4.10
2022-09-28T23:37:38.115Z,4.13
2022-09-28T23:40:06.097Z,4.57
2022-09-28T23:42:34.636Z,4.32
2022-09-28T23:45:01.392Z,4.70
2022-09-28T23:47:27.931Z,4.22
2022-09-28T23:49:54.507Z,4.28
2022-09-28T23:52:21.138Z,3.90
2022-09-28T23:54:47.682Z,4.47
2022-09-28T23:57:14.326Z,4.70
2022-09-28T23:59:40.891Z,4.20
